createdAt,value
2022-09-02T00:01:31.507Z,0.80
2022-09-02T00:04:08.300Z,0.85
2022-09-02T00:06:36.320Z,0.80
2022-09-02T00:09:05.703Z,0.80
2022-09-02T00:11:34.235Z,1.05
2022-09-02T00:14:04.808Z,0.90
2022-09-02T00:16:33.319Z,1.10
2022-09-02T00:19:02.489Z,1.10
2022-09-02T00:21:30.264Z,0.82
2022-09-02T00:23:57.386Z,1.23
2022-09-02T00:26:24.643Z,1.20
2022-09-02T00:28:56.150Z,1.00
2022-09-02T00:31:25.242Z,1.30
2022-09-02T00:33:53.395Z,0.90
2022-09-02T00:36:21.164Z,0.90
2022-09-02T00:38:48.269Z,1.30
2022-09-02T00:41:15.542Z,1.13
2022-09-02T00:43:54.656Z,0.93
2022-09-02T00:46:25.001Z,1.02
2022-09-02T00:49:00.972Z,0.95
2022-09-02T00:51:32.076Z,0.90
2022-09-02T00:53:59.655Z,1.10
2022-09-02T00:56:28.615Z,1.00
2022-09-02T00:58:56.048Z,1.00
2022-09-02T01:01:23.534Z,1.17
2022-09-02T01:03:51.384Z,1.00
2022-09-02T01:06:21.852Z,0.85
2022-09-02T01:08:54.333Z,0.90
2022-09-02T01:11:22.700Z,1.08
2022-09-02T01:13:49.841Z,1.10
2022-09-02T01:16:24.705Z,0.95
2022-09-02T01:18:55.688Z,0.93
2022-09-02T01:21:23.267Z,0.93
2022-09-02T01:23:52.236Z,0.90
2022-09-02T01:26:19.662Z,1.10
2022-09-02T01:28:47.222Z,0.98
2022-09-02T01:31:14.717Z,0.70
2022-09-02T01:33:41.905Z,1.02
2022-09-02T01:36:11.002Z,0.93
2022-09-02T01:38:38.781Z,0.82
2022-09-02T01:41:05.967Z,1.35
2022-09-02T01:43:33.312Z,1.10
2022-09-02T01:46:02.042Z,0.90
2022-09-02T01:48:29.222Z,1.08
2022-09-02T01:50:59.325Z,1.10
2022-09-02T01:53:27.215Z,0.73
2022-09-02T01:55:54.374Z,1.00
2022-09-02T01:58:21.898Z,1.10
2022-09-02T02:00:49.110Z,1.00
2022-09-02T02:03:16.578Z,0.95
2022-09-02T02:05:43.767Z,1.00
2022-09-02T02:08:11.079Z,1.20
2022-09-02T02:10:40.871Z,1.38
2022-09-02T02:13:08.237Z,1.00
2022-09-02T02:15:38.762Z,1.02
2022-09-02T02:18:05.906Z,0.73
2022-09-02T02:20:33.076Z,1.23
2022-09-02T02:23:00.406Z,1.02
2022-09-02T02:25:28.041Z,0.90
2022-09-02T02:27:55.277Z,1.02
2022-09-02T02:30:23.727Z,1.20
2022-09-02T02:32:50.906Z,1.05
2022-09-02T02:35:19.134Z,0.98
2022-09-02T02:37:49.099Z,1.20
2022-09-02T02:40:19.543Z,0.95
2022-09-02T02:42:47.360Z,1.02
2022-09-02T02:45:15.391Z,0.90
2022-09-02T02:47:45.980Z,1.00
2022-09-02T02:50:15.801Z,1.10
2022-09-02T02:52:43.656Z,1.55
2022-09-02T02:55:13.069Z,1.02
2022-09-02T02:57:42.719Z,1.27
2022-09-02T03:00:12.443Z,1.05
2022-09-02T03:02:39.731Z,1.00
2022-09-02T03:05:08.399Z,1.10
2022-09-02T03:07:35.511Z,1.40
2022-09-02T03:10:08.160Z,1.02
2022-09-02T03:12:36.721Z,1.13
2022-09-02T03:15:04.703Z,1.00
2022-09-02T03:17:31.874Z,1.08
2022-09-02T03:19:59.461Z,1.20
2022-09-02T03:22:27.311Z,1.15
2022-09-02T03:24:54.613Z,1.33
2022-09-02T03:27:21.882Z,1.40
2022-09-02T03:29:48.984Z,1.20
2022-09-02T03:32:16.098Z,1.10
2022-09-02T03:34:43.663Z,1.23
2022-09-02T03:37:10.827Z,1.10
2022-09-02T03:39:39.638Z,1.02
2022-09-02T03:42:07.308Z,1.30
2022-09-02T03:44:44.996Z,1.40
2022-09-02T03:47:13.965Z,1.30
2022-09-02T03:49:41.297Z,1.13
2022-09-02T03:52:11.031Z,1.65
2022-09-02T03:54:38.136Z,1.17
2022-09-02T03:57:05.784Z,1.60
2022-09-02T03:59:33.041Z,0.95
2022-09-02T04:02:03.535Z,1.92
2022-09-02T04:04:30.784Z,1.63
2022-09-02T04:06:58.170Z,1.40
2022-09-02T04:09:25.291Z,2.03
2022-09-02T04:11:52.375Z,1.50
2022-09-02T04:14:19.660Z,1.55
2022-09-02T04:16:47.167Z,1.45
2022-09-02T04:19:14.273Z,1.63
2022-09-02T04:21:41.947Z,1.38
2022-09-02T04:24:10.348Z,1.92
2022-09-02T04:26:37.668Z,1.45
2022-09-02T04:29:12.033Z,1.27
2022-09-02T04:31:39.149Z,1.52
2022-09-02T04:34:07.392Z,1.40
2022-09-02T04:36:34.844Z,1.67
2022-09-02T04:39:02.013Z,1.52
2022-09-02T04:41:30.285Z,1.25
2022-09-02T04:43:59.512Z,1.50
2022-09-02T04:46:34.405Z,1.52
2022-09-02T04:51:29.760Z,1.50
2022-09-02T04:53:56.849Z,2.00
2022-09-02T04:56:26.096Z,1.25
2022-09-02T04:58:54.428Z,1.40
2022-09-02T05:01:24.687Z,1.35
2022-09-02T05:03:52.207Z,1.65
2022-09-02T05:06:27.403Z,2.22
2022-09-02T05:08:56.313Z,1.48
2022-09-02T05:11:28.337Z,1.70
2022-09-02T05:13:58.021Z,1.48
2022-09-02T05:16:28.176Z,1.30
2022-09-02T05:18:55.852Z,1.52
2022-09-02T05:21:24.075Z,1.52
2022-09-02T05:23:52.126Z,1.50
2022-09-02T05:26:22.618Z,1.30
2022-09-02T05:28:50.493Z,1.90
2022-09-02T05:31:19.415Z,1.90
2022-09-02T05:33:46.851Z,1.67
2022-09-02T05:36:21.395Z,1.70
2022-09-02T05:38:49.010Z,1.40
2022-09-02T05:41:23.232Z,1.30
2022-09-02T05:43:55.613Z,1.33
2022-09-02T05:46:24.404Z,1.20
2022-09-02T05:49:17.211Z,2.10
2022-09-02T05:51:50.650Z,2.22
2022-09-02T05:54:28.561Z,1.80
2022-09-02T05:56:58.103Z,1.48
2022-09-02T05:59:26.910Z,1.67
2022-09-02T06:01:54.353Z,1.60
2022-09-02T06:04:22.463Z,1.40
2022-09-02T06:06:50.182Z,1.63
2022-09-02T06:09:21.127Z,1.92
2022-09-02T06:11:51.688Z,2.20
2022-09-02T06:14:21.848Z,1.95
2022-09-02T06:16:50.322Z,2.22
2022-09-02T06:19:20.437Z,1.70
2022-09-02T06:21:49.128Z,1.85
2022-09-02T06:24:16.229Z,2.83
2022-09-02T06:26:43.739Z,1.77
2022-09-02T06:29:11.031Z,1.80
2022-09-02T06:31:41.352Z,1.80
2022-09-02T06:34:09.093Z,2.15
2022-09-02T06:36:36.169Z,1.80
2022-09-02T06:39:03.273Z,2.25
2022-09-02T06:41:33.360Z,2.20
2022-09-02T06:44:02.594Z,2.45
2022-09-02T06:46:33.934Z,2.40
2022-09-02T06:49:01.667Z,2.35
2022-09-02T06:51:33.156Z,2.05
2022-09-02T06:54:00.730Z,2.10
2022-09-02T06:56:28.718Z,1.88
2022-09-02T06:58:56.536Z,2.08
2022-09-02T07:01:27.171Z,2.13
2022-09-02T07:04:13.147Z,1.98
2022-09-02T07:09:10.858Z,1.90
2022-09-02T07:11:39.934Z,2.13
2022-09-02T07:14:06.990Z,2.30
2022-09-02T07:16:42.165Z,2.25
2022-09-02T07:19:14.064Z,1.75
2022-09-02T07:21:43.679Z,2.35
2022-09-02T07:24:12.950Z,2.30
2022-09-02T07:26:40.659Z,2.10
2022-09-02T07:29:08.976Z,3.47
2022-09-02T07:31:38.476Z,2.92
2022-09-02T07:34:06.511Z,2.47
2022-09-02T07:36:34.966Z,1.70
2022-09-02T07:39:04.513Z,2.08
2022-09-02T07:41:31.792Z,2.05
2022-09-02T07:43:59.815Z,2.08
2022-09-02T07:46:29.444Z,2.05
2022-09-02T07:48:57.021Z,1.70
2022-09-02T07:51:24.203Z,1.70
2022-09-02T07:53:58.098Z,2.42
2022-09-02T07:56:25.448Z,1.88
2022-09-02T07:58:52.871Z,2.10
2022-09-02T08:01:23.570Z,1.52
2022-09-02T08:03:51.743Z,1.60
2022-09-02T08:06:33.792Z,2.30
2022-09-02T08:09:11.149Z,1.58
2022-09-02T08:11:40.314Z,1.58
2022-09-02T08:14:11.369Z,1.10
2022-09-02T08:16:39.212Z,1.30
2022-09-02T08:19:07.996Z,1.50
2022-09-02T08:21:35.493Z,1.15
2022-09-02T08:24:02.757Z,1.30
2022-09-02T08:26:30.295Z,1.20
2022-09-02T08:28:57.665Z,1.40
2022-09-02T08:31:24.849Z,1.73
2022-09-02T08:33:52.028Z,1.13
2022-09-02T08:36:21.000Z,1.48
2022-09-02T08:38:50.797Z,1.30
2022-09-02T08:41:21.712Z,1.55
2022-09-02T08:43:50.510Z,1.30
2022-09-02T08:46:18.635Z,1.23
2022-09-02T08:48:54.146Z,1.02
2022-09-02T08:51:33.803Z,1.15
2022-09-02T08:54:06.177Z,1.40
2022-09-02T08:56:33.331Z,0.85
2022-09-02T08:59:03.110Z,1.00
2022-09-02T09:01:38.295Z,0.93
2022-09-02T09:04:14.105Z,1.05
2022-09-02T09:06:50.232Z,1.35
2022-09-02T09:09:45.108Z,0.82
2022-09-02T09:12:41.535Z,1.30
2022-09-02T09:15:50.221Z,0.90
2022-09-02T09:18:24.193Z,1.30
2022-09-02T09:20:51.395Z,0.80
2022-09-02T09:23:34.874Z,0.88
2022-09-02T09:26:12.178Z,0.75
2022-09-02T09:28:44.705Z,0.63
2022-09-02T09:31:24.984Z,0.80
2022-09-02T09:34:12.829Z,0.70
2022-09-02T09:36:47.964Z,0.80
2022-09-02T09:39:26.127Z,0.63
2022-09-02T09:41:57.830Z,0.93
2022-09-02T09:44:46.121Z,0.85
2022-09-02T09:47:19.574Z,0.60
2022-09-02T09:49:48.614Z,0.60
2022-09-02T09:52:23.507Z,0.70
2022-09-02T09:55:12.662Z,0.45
2022-09-02T09:57:44.690Z,0.85
2022-09-02T10:00:16.353Z,1.10
2022-09-02T10:02:51.271Z,0.85
2022-09-02T10:05:19.975Z,0.70
2022-09-02T10:07:59.312Z,0.77
2022-09-02T10:10:28.886Z,0.60
2022-09-02T10:13:00.154Z,0.73
2022-09-02T10:15:38.663Z,1.20
2022-09-02T10:18:22.407Z,1.00
2022-09-02T10:21:16.557Z,1.23
2022-09-02T10:23:52.709Z,1.08
2022-09-02T10:29:21.064Z,0.77
2022-09-02T10:32:05.392Z,0.95
2022-09-02T10:34:50.836Z,1.17
2022-09-02T10:37:19.670Z,1.50
2022-09-02T10:40:10.223Z,0.73
2022-09-02T10:43:07.235Z,1.05
2022-09-02T10:46:01.114Z,0.80
2022-09-02T10:49:05.726Z,1.15
2022-09-02T10:51:45.073Z,0.73
2022-09-02T10:54:23.470Z,1.00
2022-09-02T10:57:15.724Z,0.90
2022-09-02T10:59:56.623Z,0.85
2022-09-02T11:02:32.052Z,1.20
2022-09-02T11:05:03.808Z,1.23
2022-09-02T11:07:41.757Z,1.05
2022-09-02T11:10:12.580Z,0.90
2022-09-02T11:12:44.424Z,0.90
2022-09-02T11:15:17.407Z,1.08
2022-09-02T11:17:49.636Z,0.63
2022-09-02T11:20:45.672Z,0.93
2022-09-02T11:23:40.070Z,1.02
2022-09-02T11:26:12.091Z,0.88
2022-09-02T11:28:59.787Z,1.15
2022-09-02T11:31:39.323Z,0.90
2022-09-02T11:34:21.507Z,1.05
2022-09-02T11:36:49.144Z,0.80
2022-09-02T11:39:42.835Z,1.17
2022-09-02T11:42:22.777Z,1.10
2022-09-02T11:45:10.249Z,1.20
2022-09-02T11:47:52.971Z,1.10
2022-09-02T11:50:40.449Z,0.70
2022-09-02T11:53:17.995Z,1.00
2022-09-02T11:55:50.986Z,0.70
2022-09-02T11:58:39.075Z,0.85
2022-09-02T12:01:15.042Z,1.05
2022-09-02T12:07:09.122Z,0.80
2022-09-02T12:12:36.766Z,0.90
2022-09-02T12:15:04.820Z,0.80
2022-09-02T12:17:39.943Z,0.73
2022-09-02T12:20:11.128Z,0.88
2022-09-02T12:22:39.949Z,0.75
2022-09-02T12:25:28.220Z,0.60
2022-09-02T12:28:25.285Z,0.90
2022-09-02T12:30:56.018Z,0.88
2022-09-02T12:33:36.688Z,0.90
2022-09-02T12:36:05.325Z,0.75
2022-09-02T12:38:40.190Z,0.75
2022-09-02T12:41:13.157Z,0.82
2022-09-02T12:43:47.944Z,0.60
2022-09-02T12:46:27.747Z,0.90
2022-09-02T12:49:04.819Z,1.27
2022-09-02T12:51:51.655Z,1.08
2022-09-02T12:54:24.707Z,0.80
2022-09-02T12:56:52.647Z,0.90
2022-09-02T12:59:37.603Z,0.70
2022-09-02T13:02:14.620Z,0.80
2022-09-02T13:04:45.074Z,0.88
2022-09-02T13:07:33.298Z,0.90
2022-09-02T13:10:22.328Z,0.90
2022-09-02T13:13:04.535Z,0.60
2022-09-02T13:15:52.041Z,1.08
2022-09-02T13:18:50.559Z,0.90
2022-09-02T13:21:45.428Z,0.90
2022-09-02T13:24:29.556Z,0.85
2022-09-02T13:27:15.985Z,1.00
2022-09-02T13:30:03.056Z,0.70
2022-09-02T13:32:30.911Z,1.10
2022-09-02T13:35:02.034Z,0.73
2022-09-02T13:37:39.185Z,0.90
2022-09-02T13:40:21.839Z,0.80
2022-09-02T13:42:54.895Z,0.80
2022-09-02T13:45:26.519Z,1.00
2022-09-02T13:47:55.800Z,1.00
2022-09-02T13:50:25.548Z,0.90
2022-09-02T13:53:49.277Z,1.70
2022-09-02T13:55:49.738Z,2.45
2022-09-02T13:58:28.870Z,1.00
2022-09-02T14:01:01.701Z,1.63
2022-09-02T14:03:32.661Z,0.93
2022-09-02T14:06:00.808Z,1.08
2022-09-02T14:08:29.136Z,1.17
2022-09-02T14:10:56.619Z,0.77
2022-09-02T14:13:23.900Z,1.00
2022-09-02T14:15:51.061Z,0.73
2022-09-02T14:18:20.575Z,0.70
2022-09-02T14:21:00.049Z,1.20
2022-09-02T14:23:29.247Z,1.17
2022-09-02T14:25:58.554Z,0.90
2022-09-02T14:28:33.806Z,1.45
2022-09-02T14:31:08.777Z,0.70
2022-09-02T14:33:35.912Z,0.85
2022-09-02T14:36:06.163Z,0.80
2022-09-02T14:38:48.939Z,0.93
2022-09-02T14:41:23.354Z,1.30
2022-09-02T14:43:57.097Z,0.98
2022-09-02T14:46:30.032Z,1.13
2022-09-02T14:49:01.745Z,1.10
2022-09-02T14:51:34.219Z,0.80
2022-09-02T14:54:01.578Z,0.90
2022-09-02T14:56:45.387Z,1.08
2022-09-02T14:59:12.532Z,1.17
2022-09-02T15:01:41.595Z,1.05
2022-09-02T15:04:09.501Z,1.60
2022-09-02T15:06:36.643Z,1.00
2022-09-02T15:09:04.381Z,0.85
2022-09-02T15:11:31.737Z,0.93
2022-09-02T15:13:59.192Z,1.20
2022-09-02T15:16:26.270Z,0.80
2022-09-02T15:18:53.448Z,1.17
2022-09-02T15:21:20.988Z,0.93
2022-09-02T15:23:51.281Z,0.65
2022-09-02T15:26:18.534Z,0.80
2022-09-02T15:28:45.661Z,0.80
2022-09-02T15:31:13.144Z,0.90
2022-09-02T15:33:41.901Z,0.90
2022-09-02T15:36:11.822Z,0.82
2022-09-02T15:38:40.976Z,1.15
2022-09-02T15:41:12.856Z,0.80
2022-09-02T15:43:40.291Z,0.60
2022-09-02T15:46:27.248Z,0.90
2022-09-02T15:49:01.668Z,0.90
2022-09-02T15:51:29.793Z,0.90
2022-09-02T15:53:58.717Z,0.82
2022-09-02T15:56:27.579Z,0.80
2022-09-02T15:58:59.662Z,0.70
2022-09-02T16:01:28.140Z,0.80
2022-09-02T16:03:55.884Z,0.80
2022-09-02T16:06:23.089Z,0.90
2022-09-02T16:08:50.599Z,1.10
2022-09-02T16:11:18.840Z,0.80
2022-09-02T16:13:45.910Z,0.70
2022-09-02T16:16:13.945Z,0.70
2022-09-02T16:18:42.228Z,0.85
2022-09-02T16:21:11.059Z,2.38
2022-09-02T16:23:38.644Z,0.90
2022-09-02T16:26:11.366Z,0.80
2022-09-02T16:28:39.991Z,0.77
2022-09-02T16:31:08.632Z,1.30
2022-09-02T16:33:36.017Z,1.00
2022-09-02T16:36:04.368Z,0.90
2022-09-02T16:38:31.669Z,0.73
2022-09-02T16:40:58.829Z,0.90
2022-09-02T16:43:25.958Z,0.93
2022-09-02T16:45:54.284Z,0.90
2022-09-02T16:48:25.809Z,1.15
2022-09-02T16:50:53.040Z,0.80
2022-09-02T16:53:20.151Z,1.00
2022-09-02T16:55:47.491Z,1.20
2022-09-02T16:58:14.600Z,1.20
2022-09-02T17:00:42.013Z,1.08
2022-09-02T17:03:12.440Z,1.10
2022-09-02T17:05:39.740Z,1.17
2022-09-02T17:08:07.116Z,1.13
2022-09-02T17:10:35.130Z,0.90
2022-09-02T17:13:02.329Z,1.13
2022-09-02T17:15:30.691Z,4.10
2022-09-02T17:17:57.855Z,4.07
2022-09-02T17:20:25.285Z,1.60
2022-09-02T17:22:52.577Z,0.95
2022-09-02T17:25:19.718Z,0.90
2022-09-02T17:27:46.776Z,0.90
2022-09-02T17:30:13.864Z,0.77
2022-09-02T17:32:41.355Z,1.05
2022-09-02T17:35:09.617Z,1.27
2022-09-02T17:37:37.325Z,1.90
2022-09-02T17:40:06.281Z,1.35
2022-09-02T17:42:33.870Z,1.20
2022-09-02T17:45:01.200Z,1.17
2022-09-02T17:47:31.592Z,1.25
2022-09-02T17:49:59.159Z,1.38
2022-09-02T17:52:26.601Z,0.95
2022-09-02T17:54:54.222Z,1.27
2022-09-02T17:57:42.912Z,0.93
2022-09-02T18:00:26.472Z,1.10
2022-09-02T18:02:59.180Z,1.20
2022-09-02T18:05:53.261Z,1.20
2022-09-02T18:08:36.423Z,1.23
2022-09-02T18:11:06.538Z,2.83
2022-09-02T18:14:08.594Z,2.63
2022-09-02T18:17:14.392Z,1.75
2022-09-02T18:20:03.544Z,1.63
2022-09-02T18:22:51.084Z,1.67
2022-09-02T18:25:38.798Z,1.13
2022-09-02T18:28:17.405Z,1.20
2022-09-02T18:30:54.633Z,1.33
2022-09-02T18:33:43.411Z,1.08
2022-09-02T18:36:22.979Z,1.13
2022-09-02T18:39:19.188Z,1.38
2022-09-02T18:42:08.211Z,1.20
2022-09-02T18:44:58.347Z,1.20
2022-09-02T18:47:29.771Z,1.60
2022-09-02T18:49:58.694Z,1.65
2022-09-02T18:52:28.072Z,1.90
2022-09-02T18:55:14.955Z,1.42
2022-09-02T18:57:51.481Z,1.65
2022-09-02T19:00:22.714Z,1.65
2022-09-02T19:03:05.473Z,1.58
2022-09-02T19:05:36.102Z,1.52
2022-09-02T19:08:25.977Z,1.30
2022-09-02T19:11:09.321Z,1.60
2022-09-02T19:13:55.451Z,1.48
2022-09-02T19:16:30.156Z,1.83
2022-09-02T19:18:57.276Z,1.30
2022-09-02T19:21:35.225Z,1.42
2022-09-02T19:24:04.491Z,1.30
2022-09-02T19:26:31.775Z,1.10
2022-09-02T19:28:59.503Z,1.73
2022-09-02T19:31:28.269Z,1.55
2022-09-02T19:33:57.189Z,1.40
2022-09-02T19:36:29.428Z,1.42
2022-09-02T19:39:00.038Z,1.40
2022-09-02T19:41:27.923Z,1.50
2022-09-02T19:43:55.064Z,1.30
2022-09-02T19:46:56.100Z,1.67
2022-09-02T19:49:10.433Z,1.42
2022-09-02T19:51:37.607Z,1.30
2022-09-02T19:54:04.759Z,1.30
2022-09-02T19:56:31.818Z,1.52
2022-09-02T19:58:59.054Z,1.27
2022-09-02T20:01:26.424Z,1.48
2022-09-02T20:03:53.571Z,1.70
2022-09-02T20:06:20.603Z,1.73
2022-09-02T20:08:47.994Z,1.35
2022-09-02T20:11:15.144Z,1.60
2022-09-02T20:13:42.440Z,1.50
2022-09-02T20:16:20.397Z,1.40
2022-09-02T20:18:52.961Z,1.80
2022-09-02T20:21:23.308Z,1.67
2022-09-02T20:23:50.698Z,2.03
2022-09-02T20:26:20.601Z,1.58
2022-09-02T20:28:56.191Z,1.70
2022-09-02T20:31:54.296Z,1.30
2022-09-02T20:34:29.832Z,1.38
2022-09-02T20:37:15.866Z,1.90
2022-09-02T20:40:06.788Z,1.42
2022-09-02T20:42:52.432Z,1.30
2022-09-02T20:45:26.479Z,1.63
2022-09-02T20:48:27.402Z,1.67
2022-09-02T20:51:08.248Z,1.60
2022-09-02T20:54:13.020Z,1.67
2022-09-02T20:57:07.572Z,1.67
2022-09-02T21:00:02.274Z,1.77
2022-09-02T21:02:33.924Z,1.63
2022-09-02T21:05:12.091Z,1.40
2022-09-02T21:07:45.579Z,1.10
2022-09-02T21:10:22.199Z,1.60
2022-09-02T21:12:55.095Z,1.52
2022-09-02T21:15:28.938Z,1.63
2022-09-02T21:18:19.037Z,2.00
2022-09-02T21:20:59.450Z,1.52
2022-09-02T21:23:46.662Z,1.60
2022-09-02T21:26:18.555Z,1.50
2022-09-02T21:28:55.418Z,1.52
2022-09-02T21:31:29.702Z,1.60
2022-09-02T21:34:01.092Z,1.50
2022-09-02T21:36:30.319Z,1.58
2022-09-02T21:38:58.390Z,1.60
2022-09-02T21:41:29.008Z,1.33
2022-09-02T21:44:05.336Z,1.73
2022-09-02T21:46:38.202Z,1.42
2022-09-02T21:49:36.935Z,1.30
2022-09-02T21:52:06.702Z,1.20
2022-09-02T21:55:13.695Z,1.52
2022-09-02T21:58:14.596Z,1.70
2022-09-02T22:01:00.700Z,1.20
2022-09-02T22:03:41.757Z,1.40
2022-09-02T22:06:16.085Z,1.50
2022-09-02T22:08:50.314Z,1.50
2022-09-02T22:11:33.050Z,1.40
2022-09-02T22:14:28.123Z,1.13
2022-09-02T22:17:01.650Z,1.77
2022-09-02T22:19:31.842Z,2.22
2022-09-02T22:22:09.034Z,1.85
2022-09-02T22:24:37.436Z,1.52
2022-09-02T22:27:11.350Z,1.45
2022-09-02T22:29:53.440Z,1.38
2022-09-02T22:32:23.616Z,1.42
2022-09-02T22:35:09.382Z,1.27
2022-09-02T22:37:58.361Z,1.40
2022-09-02T22:40:28.907Z,1.38
2022-09-02T22:43:00.751Z,1.45
2022-09-02T22:45:52.735Z,1.30
2022-09-02T22:48:51.220Z,1.40
2022-09-02T22:51:46.989Z,1.30
2022-09-02T22:54:14.470Z,1.20
2022-09-02T22:57:03.262Z,1.25
2022-09-02T22:59:48.720Z,1.45
2022-09-02T23:02:27.104Z,1.15
2022-09-02T23:05:49.243Z,1.20
2022-09-02T23:08:20.338Z,1.40
2022-09-02T23:10:57.426Z,1.17
2022-09-02T23:13:45.841Z,1.20
2022-09-02T23:16:27.985Z,0.95
2022-09-02T23:19:34.765Z,1.23
2022-09-02T23:24:56.118Z,1.58
2022-09-02T23:27:30.932Z,1.10
2022-09-02T23:29:58.103Z,1.20
2022-09-02T23:32:43.356Z,1.33
2022-09-02T23:35:17.360Z,1.45
2022-09-02T23:38:01.486Z,1.23
2022-09-02T23:40:54.506Z,1.35
2022-09-02T23:43:21.950Z,1.50
2022-09-02T23:45:49.110Z,1.20
2022-09-02T23:48:36.604Z,1.05
2022-09-02T23:51:24.950Z,1.10
2022-09-02T23:54:19.554Z,1.25
2022-09-02T23:57:01.291Z,1.48
